Skip Navigation Links
NOAA logo - Click to go to the NOAA homepage
NOAA's National Weather Service
Alaska Aviation Weather Unit
  NWS logo - Click to go to the NWS homepage
Left Navbar Graphic     01 AKDT = 09 GMT

   
NOAA is celebrating 200 years of science, service, and stewardship. Visit the NOAA 200th celebration Web site to learn more.
USA.gov is the U.S. Government's official Web portal to all Federal, state and local government Web resources and services.
Facebook
NWS on Facebook

Important Change Regarding the AAWU Web Presence

 

Over the last several months, the AAWU has been working to navigate its webpages to a nationally supported server. Security, as well as other needs, have necessitated the change.  We have been given an extension for the site changeover while we diligently work at addressing feedback received. As of July 14, 2017, aawu.arh.noaa.gov will be discontinued. The new AAWU web address is weather.gov/aawu. It is now live and will run in-parallel with the old site until it is discontinued on July 14, 2017. Please continue to send any feedback or questions regarding the new webpages to nws.ar.aawu.webauthors@noaa.gov.  Thank you for your patience during this time of transition.
AAWU Home :: Display TAF Add Bookmark
METAR PAOH 190356Z AUTO 00000KT 10SM BKN055 OVC070 12/11 A2997 RMK
 AO2 SLP150 T01220111=

METAR PAOH 190456Z AUTO 00000KT 10SM OVC060 12/11 A2998 RMK AO2 SLP153
     T01170111=

METAR PAOH 190556Z AUTO 00000KT 10SM FEW043 OVC060 12/11 A2998 RMK
 AO2 SLP155 P0001 60003 T01170106 10156 20117 53006=

METAR PAOH 190656Z AUTO 00000KT 10SM -RA FEW039 OVC060 11/11 A3000 RMK
     AO2 RAB50 SLP159 P0000 T01110106=

METAR PAOH 190756Z AUTO 00000KT 10SM SCT035 BKN048 OVC090 11/11
 A3000 RMK AO2 RAE16 SLP160 P0000 T01060106 401560094=

METAR PAOH 190856Z AUTO 00000KT 10SM -RA OVC065 11/11 A3001 RMK AO2
 RAB04 SLP162 P0001 60001 T01060106 51007=


NOAA's National Weather Service
Alaska Aviation Weather Unit
6930 Sand Lake Road
Anchorage, AK 99502-1845
Disclaimer
Credits
Glossary
Privacy Policy
About Us
Career Opportunities
Contact AAWU Internet Services Site last modified: April, 17th 2012